sensor_id;sensor_type;location;lat;lon;timestamp;temperature;humidity
35645;DHT22;21764;52.042;6.830;2022-07-29T00:04:19;17.60;89.70
35645;DHT22;21764;52.042;6.830;2022-07-29T00:09:20;17.50;90.20
35645;DHT22;21764;52.042;6.830;2022-07-29T00:14:20;17.50;90.60
35645;DHT22;21764;52.042;6.830;2022-07-29T00:19:21;17.50;90.70
35645;DHT22;21764;52.042;6.830;2022-07-29T00:24:22;17.40;91.10
35645;DHT22;21764;52.042;6.830;2022-07-29T00:29:22;17.40;91.40
35645;DHT22;21764;52.042;6.830;2022-07-29T00:34:23;17.40;91.50
35645;DHT22;21764;52.042;6.830;2022-07-29T00:39:42;17.30;91.90
35645;DHT22;21764;52.042;6.830;2022-07-29T00:44:43;17.30;91.90
35645;DHT22;21764;52.042;6.830;2022-07-29T00:49:44;17.10;92.40
35645;DHT22;21764;52.042;6.830;2022-07-29T00:54:45;17.20;92.50
35645;DHT22;21764;52.042;6.830;2022-07-29T00:59:45;17.00;93.00
35645;DHT22;21764;52.042;6.830;2022-07-29T01:04:46;17.00;92.90
35645;DHT22;21764;52.042;6.830;2022-07-29T01:09:47;17.00;93.30
35645;DHT22;21764;52.042;6.830;2022-07-29T01:14:49;16.90;93.50
35645;DHT22;21764;52.042;6.830;2022-07-29T01:29:59;16.70;94.60
35645;DHT22;21764;52.042;6.830;2022-07-29T01:35:17;16.80;94.30
35645;DHT22;21764;52.042;6.830;2022-07-29T01:45:56;16.80;95.10
35645;DHT22;21764;52.042;6.830;2022-07-29T01:51:35;16.70;95.20
35645;DHT22;21764;52.042;6.830;2022-07-29T01:56:36;16.70;95.60
35645;DHT22;21764;52.042;6.830;2022-07-29T02:01:39;16.60;95.90
35645;DHT22;21764;52.042;6.830;2022-07-29T02:06:42;16.50;96.40
35645;DHT22;21764;52.042;6.830;2022-07-29T02:11:54;16.40;96.70
35645;DHT22;21764;52.042;6.830;2022-07-29T02:16:58;16.40;97.00
35645;DHT22;21764;52.042;6.830;2022-07-29T02:22:00;16.40;97.30
35645;DHT22;21764;52.042;6.830;2022-07-29T02:27:03;16.40;97.40
35645;DHT22;21764;52.042;6.830;2022-07-29T02:32:05;16.20;98.10
35645;DHT22;21764;52.042;6.830;2022-07-29T02:37:10;16.10;98.40
35645;DHT22;21764;52.042;6.830;2022-07-29T02:42:13;16.20;98.70
35645;DHT22;21764;52.042;6.830;2022-07-29T02:47:31;16.20;98.60
35645;DHT22;21764;52.042;6.830;2022-07-29T02:52:39;16.20;98.90
35645;DHT22;21764;52.042;6.830;2022-07-29T02:57:44;16.20;99.30
35645;DHT22;21764;52.042;6.830;2022-07-29T03:02:50;16.20;99.20
35645;DHT22;21764;52.042;6.830;2022-07-29T03:07:58;16.30;99.10
35645;DHT22;21764;52.042;6.830;2022-07-29T03:12:59;16.10;99.80
35645;DHT22;21764;52.042;6.830;2022-07-29T03:18:00;16.20;99.90
35645;DHT22;21764;52.042;6.830;2022-07-29T03:23:02;16.30;99.90
35645;DHT22;21764;52.042;6.830;2022-07-29T03:28:03;16.30;99.90
35645;DHT22;21764;52.042;6.830;2022-07-29T03:33:03;16.20;99.90
35645;DHT22;21764;52.042;6.830;2022-07-29T03:38:04;16.20;99.90
35645;DHT22;21764;52.042;6.830;2022-07-29T03:43:06;16.00;99.90
35645;DHT22;21764;52.042;6.830;2022-07-29T03:48:12;16.00;99.90
35645;DHT22;21764;52.042;6.830;2022-07-29T03:53:13;16.00;99.90
35645;DHT22;21764;52.042;6.830;2022-07-29T03:58:14;15.90;99.90
35645;DHT22;21764;52.042;6.830;2022-07-29T04:03:16;15.90;99.90
35645;DHT22;21764;52.042;6.830;2022-07-29T04:08:17;15.90;99.90
35645;DHT22;21764;52.042;6.830;2022-07-29T04:13:18;15.90;99.90
35645;DHT22;21764;52.042;6.830;2022-07-29T04:18:19;16.00;99.90
35645;DHT22;21764;52.042;6.830;2022-07-29T04:23:20;16.10;99.90
35645;DHT22;21764;52.042;6.830;2022-07-29T04:28:20;16.30;99.90
35645;DHT22;21764;52.042;6.830;2022-07-29T04:33:21;16.40;99.90
35645;DHT22;21764;52.042;6.830;2022-07-29T04:38:22;16.50;99.90
35645;DHT22;21764;52.042;6.830;2022-07-29T04:43:22;16.50;99.90
35645;DHT22;21764;52.042;6.830;2022-07-29T04:48:23;16.40;99.90
35645;DHT22;21764;52.042;6.830;2022-07-29T04:53:24;16.50;99.90
35645;DHT22;21764;52.042;6.830;2022-07-29T04:58:24;16.50;99.90
35645;DHT22;21764;52.042;6.830;2022-07-29T05:03:25;16.40;99.90
35645;DHT22;21764;52.042;6.830;2022-07-29T05:08:26;16.40;99.90
35645;DHT22;21764;52.042;6.830;2022-07-29T05:13:26;16.50;99.90
35645;DHT22;21764;52.042;6.830;2022-07-29T05:18:27;16.50;99.90
35645;DHT22;21764;52.042;6.830;2022-07-29T05:23:28;16.50;99.90
35645;DHT22;21764;52.042;6.830;2022-07-29T05:28:32;16.60;99.90
35645;DHT22;21764;52.042;6.830;2022-07-29T05:33:33;16.50;99.90
35645;DHT22;21764;52.042;6.830;2022-07-29T05:38:35;16.60;99.90
35645;DHT22;21764;52.042;6.830;2022-07-29T05:43:36;16.50;99.90
35645;DHT22;21764;52.042;6.830;2022-07-29T05:48:36;16.50;99.90
35645;DHT22;21764;52.042;6.830;2022-07-29T05:53:37;16.30;99.90
35645;DHT22;21764;52.042;6.830;2022-07-29T05:58:38;16.30;99.90
35645;DHT22;21764;52.042;6.830;2022-07-29T06:03:38;16.30;99.90
35645;DHT22;21764;52.042;6.830;2022-07-29T06:08:41;16.50;99.90
35645;DHT22;21764;52.042;6.830;2022-07-29T06:13:42;16.50;99.90
35645;DHT22;21764;52.042;6.830;2022-07-29T06:18:42;16.60;99.90
35645;DHT22;21764;52.042;6.830;2022-07-29T06:23:44;16.80;99.90
35645;DHT22;21764;52.042;6.830;2022-07-29T06:28:45;16.80;99.90
35645;DHT22;21764;52.042;6.830;2022-07-29T06:33:46;16.80;99.90
35645;DHT22;21764;52.042;6.830;2022-07-29T06:38:46;16.80;99.90
35645;DHT22;21764;52.042;6.830;2022-07-29T06:43:47;16.70;99.90
35645;DHT22;21764;52.042;6.830;2022-07-29T06:48:48;16.30;99.90
35645;DHT22;21764;52.042;6.830;2022-07-29T06:53:51;16.30;99.90
35645;DHT22;21764;52.042;6.830;2022-07-29T06:58:52;16.50;99.90
35645;DHT22;21764;52.042;6.830;2022-07-29T07:03:52;16.70;99.90
35645;DHT22;21764;52.042;6.830;2022-07-29T07:08:53;16.50;99.90
35645;DHT22;21764;52.042;6.830;2022-07-29T07:13:54;16.50;99.90
35645;DHT22;21764;52.042;6.830;2022-07-29T07:18:55;16.10;99.90
35645;DHT22;21764;52.042;6.830;2022-07-29T07:23:55;16.50;99.90
35645;DHT22;21764;52.042;6.830;2022-07-29T07:28:56;16.30;99.90
35645;DHT22;21764;52.042;6.830;2022-07-29T07:33:57;15.60;99.90
35645;DHT22;21764;52.042;6.830;2022-07-29T07:38:58;16.10;99.90
35645;DHT22;21764;52.042;6.830;2022-07-29T07:43:59;16.20;99.90
35645;DHT22;21764;52.042;6.830;2022-07-29T07:48:59;15.50;99.90
35645;DHT22;21764;52.042;6.830;2022-07-29T07:54:00;15.30;99.90
35645;DHT22;21764;52.042;6.830;2022-07-29T07:59:01;15.70;99.90
35645;DHT22;21764;52.042;6.830;2022-07-29T08:04:01;16.10;99.90
35645;DHT22;21764;52.042;6.830;2022-07-29T08:09:03;15.90;99.90
35645;DHT22;21764;52.042;6.830;2022-07-29T08:14:04;15.80;99.90
35645;DHT22;21764;52.042;6.830;2022-07-29T08:19:05;16.10;99.90
35645;DHT22;21764;52.042;6.830;2022-07-29T08:24:06;16.40;99.90
35645;DHT22;21764;52.042;6.830;2022-07-29T08:29:25;16.80;99.90
35645;DHT22;21764;52.042;6.830;2022-07-29T08:34:26;16.50;99.90
35645;DHT22;21764;52.042;6.830;2022-07-29T08:39:34;16.90;99.90
35645;DHT22;21764;52.042;6.830;2022-07-29T08:44:34;16.90;99.90
35645;DHT22;21764;52.042;6.830;2022-07-29T08:49:36;16.80;99.90
35645;DHT22;21764;52.042;6.830;2022-07-29T08:54:39;16.90;99.90
35645;DHT22;21764;52.042;6.830;2022-07-29T08:59:43;16.90;99.90
35645;DHT22;21764;52.042;6.830;2022-07-29T09:04:45;16.70;99.90
35645;DHT22;21764;52.042;6.830;2022-07-29T09:09:46;16.70;99.90
35645;DHT22;21764;52.042;6.830;2022-07-29T09:14:47;16.80;99.90
35645;DHT22;21764;52.042;6.830;2022-07-29T09:19:48;16.60;99.90
35645;DHT22;21764;52.042;6.830;2022-07-29T09:24:49;16.70;99.90
35645;DHT22;21764;52.042;6.830;2022-07-29T09:29:58;16.50;99.90
35645;DHT22;21764;52.042;6.830;2022-07-29T09:35:20;16.80;99.90
35645;DHT22;21764;52.042;6.830;2022-07-29T09:40:27;17.00;99.90
35645;DHT22;21764;52.042;6.830;2022-07-29T09:45:32;17.10;99.90
35645;DHT22;21764;52.042;6.830;2022-07-29T09:50:41;17.10;99.90
35645;DHT22;21764;52.042;6.830;2022-07-29T09:55:48;17.10;99.90
35645;DHT22;21764;52.042;6.830;2022-07-29T10:00:51;17.30;99.90
35645;DHT22;21764;52.042;6.830;2022-07-29T10:06:06;17.30;99.90
35645;DHT22;21764;52.042;6.830;2022-07-29T10:16:12;17.40;99.90
35645;DHT22;21764;52.042;6.830;2022-07-29T10:21:13;17.60;99.90
35645;DHT22;21764;52.042;6.830;2022-07-29T10:26:15;18.00;99.90
35645;DHT22;21764;52.042;6.830;2022-07-29T10:31:27;18.20;99.90
35645;DHT22;21764;52.042;6.830;2022-07-29T10:36:41;17.60;99.90
35645;DHT22;21764;52.042;6.830;2022-07-29T10:42:08;17.40;99.90
35645;DHT22;21764;52.042;6.830;2022-07-29T10:47:22;17.20;99.90
35645;DHT22;21764;52.042;6.830;2022-07-29T10:52:23;17.10;99.90
35645;DHT22;21764;52.042;6.830;2022-07-29T10:57:29;17.20;99.90
35645;DHT22;21764;52.042;6.830;2022-07-29T11:07:39;17.10;99.90
35645;DHT22;21764;52.042;6.830;2022-07-29T11:23:00;17.50;99.90
35645;DHT22;21764;52.042;6.830;2022-07-29T11:28:12;17.80;99.90
35645;DHT22;21764;52.042;6.830;2022-07-29T11:33:31;17.90;99.90
35645;DHT22;21764;52.042;6.830;2022-07-29T11:38:32;18.20;99.90
35645;DHT22;21764;52.042;6.830;2022-07-29T11:43:46;18.40;99.90
35645;DHT22;21764;52.042;6.830;2022-07-29T11:48:48;18.70;99.90
35645;DHT22;21764;52.042;6.830;2022-07-29T11:53:50;19.30;99.90
35645;DHT22;21764;52.042;6.830;2022-07-29T11:58:51;19.80;99.90
35645;DHT22;21764;52.042;6.830;2022-07-29T12:04:07;20.40;99.90
35645;DHT22;21764;52.042;6.830;2022-07-29T12:09:08;21.30;99.90
35645;DHT22;21764;52.042;6.830;2022-07-29T12:14:30;22.80;99.90
35645;DHT22;21764;52.042;6.830;2022-07-29T12:19:42;23.30;99.90
35645;DHT22;21764;52.042;6.830;2022-07-29T12:24:44;23.90;99.90
35645;DHT22;21764;52.042;6.830;2022-07-29T12:29:55;23.90;99.90
35645;DHT22;21764;52.042;6.830;2022-07-29T12:34:56;23.50;99.90
35645;DHT22;21764;52.042;6.830;2022-07-29T12:39:57;23.10;99.90
35645;DHT22;21764;52.042;6.830;2022-07-29T12:44:59;23.10;99.90
35645;DHT22;21764;52.042;6.830;2022-07-29T12:50:14;23.00;99.90
35645;DHT22;21764;52.042;6.830;2022-07-29T12:55:44;23.50;99.90
35645;DHT22;21764;52.042;6.830;2022-07-29T13:01:05;23.00;99.90
35645;DHT22;21764;52.042;6.830;2022-07-29T13:06:06;23.40;99.90
35645;DHT22;21764;52.042;6.830;2022-07-29T13:11:07;23.00;99.90
35645;DHT22;21764;52.042;6.830;2022-07-29T13:16:08;22.70;99.90
35645;DHT22;21764;52.042;6.830;2022-07-29T13:21:13;23.20;99.90
35645;DHT22;21764;52.042;6.830;2022-07-29T13:26:14;23.00;99.50
35645;DHT22;21764;52.042;6.830;2022-07-29T13:31:19;21.90;99.90
35645;DHT22;21764;52.042;6.830;2022-07-29T13:36:20;22.50;99.90
35645;DHT22;21764;52.042;6.830;2022-07-29T13:41:20;22.90;99.20
35645;DHT22;21764;52.042;6.830;2022-07-29T13:46:21;23.00;99.60
35645;DHT22;21764;52.042;6.830;2022-07-29T13:51:22;22.90;97.40
35645;DHT22;21764;52.042;6.830;2022-07-29T13:56:22;23.00;98.60
35645;DHT22;21764;52.042;6.830;2022-07-29T14:01:24;23.30;96.30
35645;DHT22;21764;52.042;6.830;2022-07-29T14:06:25;23.40;96.80
35645;DHT22;21764;52.042;6.830;2022-07-29T14:11:26;23.40;97.40
35645;DHT22;21764;52.042;6.830;2022-07-29T14:16:26;23.80;96.30
35645;DHT22;21764;52.042;6.830;2022-07-29T14:21:27;23.70;96.70
35645;DHT22;21764;52.042;6.830;2022-07-29T14:26:28;23.20;94.10
35645;DHT22;21764;52.042;6.830;2022-07-29T14:31:29;23.80;95.80
35645;DHT22;21764;52.042;6.830;2022-07-29T14:36:29;24.20;94.40
35645;DHT22;21764;52.042;6.830;2022-07-29T14:41:30;24.30;92.80
35645;DHT22;21764;52.042;6.830;2022-07-29T14:46:31;23.90;93.30
35645;DHT22;21764;52.042;6.830;2022-07-29T14:51:32;23.30;93.20
35645;DHT22;21764;52.042;6.830;2022-07-29T14:56:32;23.50;93.80
35645;DHT22;21764;52.042;6.830;2022-07-29T15:01:33;23.40;93.00
35645;DHT22;21764;52.042;6.830;2022-07-29T15:06:34;23.20;92.00
35645;DHT22;21764;52.042;6.830;2022-07-29T15:11:36;23.30;93.60
35645;DHT22;21764;52.042;6.830;2022-07-29T15:16:38;23.20;93.00
35645;DHT22;21764;52.042;6.830;2022-07-29T15:21:40;23.20;93.20
35645;DHT22;21764;52.042;6.830;2022-07-29T15:26:40;23.40;93.00
35645;DHT22;21764;52.042;6.830;2022-07-29T15:31:43;23.40;93.60
35645;DHT22;21764;52.042;6.830;2022-07-29T15:36:43;23.30;93.80
35645;DHT22;21764;52.042;6.830;2022-07-29T15:41:44;23.20;93.20
35645;DHT22;21764;52.042;6.830;2022-07-29T15:46:45;23.20;93.60
35645;DHT22;21764;52.042;6.830;2022-07-29T15:52:07;23.50;93.60
35645;DHT22;21764;52.042;6.830;2022-07-29T15:57:07;23.30;93.50
35645;DHT22;21764;52.042;6.830;2022-07-29T16:02:08;23.40;93.50
35645;DHT22;21764;52.042;6.830;2022-07-29T16:07:09;23.40;92.70
35645;DHT22;21764;52.042;6.830;2022-07-29T16:12:10;23.30;93.30
35645;DHT22;21764;52.042;6.830;2022-07-29T16:17:11;23.50;93.30
35645;DHT22;21764;52.042;6.830;2022-07-29T16:22:12;23.60;93.40
35645;DHT22;21764;52.042;6.830;2022-07-29T16:27:12;23.50;93.40
35645;DHT22;21764;52.042;6.830;2022-07-29T16:32:13;23.50;93.20
35645;DHT22;21764;52.042;6.830;2022-07-29T16:37:14;23.60;93.20
35645;DHT22;21764;52.042;6.830;2022-07-29T16:42:15;23.70;93.80
35645;DHT22;21764;52.042;6.830;2022-07-29T16:47:15;23.70;93.50
35645;DHT22;21764;52.042;6.830;2022-07-29T16:52:16;23.50;92.70
35645;DHT22;21764;52.042;6.830;2022-07-29T16:57:17;23.50;92.70
35645;DHT22;21764;52.042;6.830;2022-07-29T17:02:18;23.60;92.80
35645;DHT22;21764;52.042;6.830;2022-07-29T17:07:18;23.60;92.00
35645;DHT22;21764;52.042;6.830;2022-07-29T17:12:19;23.40;91.00
35645;DHT22;21764;52.042;6.830;2022-07-29T17:17:20;23.40;91.70
35645;DHT22;21764;52.042;6.830;2022-07-29T17:22:20;23.30;90.90
35645;DHT22;21764;52.042;6.830;2022-07-29T17:27:21;23.20;91.40
35645;DHT22;21764;52.042;6.830;2022-07-29T17:32:22;23.30;91.70
35645;DHT22;21764;52.042;6.830;2022-07-29T17:37:23;23.20;91.10
35645;DHT22;21764;52.042;6.830;2022-07-29T17:42:24;23.20;91.00
35645;DHT22;21764;52.042;6.830;2022-07-29T17:47:24;23.10;91.90
35645;DHT22;21764;52.042;6.830;2022-07-29T17:52:25;23.00;91.90
35645;DHT22;21764;52.042;6.830;2022-07-29T17:57:25;22.80;91.70
35645;DHT22;21764;52.042;6.830;2022-07-29T18:02:26;22.70;92.30
35645;DHT22;21764;52.042;6.830;2022-07-29T18:07:27;22.60;93.30
35645;DHT22;21764;52.042;6.830;2022-07-29T18:12:28;22.50;93.70
35645;DHT22;21764;52.042;6.830;2022-07-29T18:17:28;22.30;93.90
35645;DHT22;21764;52.042;6.830;2022-07-29T18:22:29;22.10;94.50
35645;DHT22;21764;52.042;6.830;2022-07-29T18:27:30;21.80;95.60
35645;DHT22;21764;52.042;6.830;2022-07-29T18:32:30;21.70;95.50
35645;DHT22;21764;52.042;6.830;2022-07-29T18:37:31;21.50;96.20
35645;DHT22;21764;52.042;6.830;2022-07-29T18:42:33;21.30;96.60
35645;DHT22;21764;52.042;6.830;2022-07-29T18:47:35;21.00;97.60
35645;DHT22;21764;52.042;6.830;2022-07-29T18:52:36;20.90;98.20
35645;DHT22;21764;52.042;6.830;2022-07-29T18:57:36;20.70;99.20
35645;DHT22;21764;52.042;6.830;2022-07-29T19:02:37;20.60;99.90
35645;DHT22;21764;52.042;6.830;2022-07-29T19:07:38;20.40;99.90
35645;DHT22;21764;52.042;6.830;2022-07-29T19:12:39;20.30;99.90
35645;DHT22;21764;52.042;6.830;2022-07-29T19:17:39;20.10;99.90
35645;DHT22;21764;52.042;6.830;2022-07-29T19:22:40;19.90;99.90
35645;DHT22;21764;52.042;6.830;2022-07-29T19:27:47;19.80;99.90
35645;DHT22;21764;52.042;6.830;2022-07-29T19:32:47;19.70;99.90
35645;DHT22;21764;52.042;6.830;2022-07-29T19:37:49;19.50;99.90
35645;DHT22;21764;52.042;6.830;2022-07-29T19:42:50;19.50;99.90
35645;DHT22;21764;52.042;6.830;2022-07-29T19:47:52;19.40;99.90
35645;DHT22;21764;52.042;6.830;2022-07-29T19:52:53;19.30;99.90
35645;DHT22;21764;52.042;6.830;2022-07-29T19:57:54;19.20;99.90
35645;DHT22;21764;52.042;6.830;2022-07-29T20:02:55;19.10;99.90
35645;DHT22;21764;52.042;6.830;2022-07-29T20:07:56;19.10;99.90
35645;DHT22;21764;52.042;6.830;2022-07-29T20:12:58;19.20;99.90
35645;DHT22;21764;52.042;6.830;2022-07-29T20:17:58;19.30;99.90
35645;DHT22;21764;52.042;6.830;2022-07-29T20:23:00;19.30;99.90
35645;DHT22;21764;52.042;6.830;2022-07-29T20:28:02;19.30;99.90
35645;DHT22;21764;52.042;6.830;2022-07-29T20:33:03;19.40;99.90
35645;DHT22;21764;52.042;6.830;2022-07-29T20:38:03;19.40;99.90
35645;DHT22;21764;52.042;6.830;2022-07-29T20:43:04;19.40;99.90
35645;DHT22;21764;52.042;6.830;2022-07-29T20:48:05;19.40;99.90
35645;DHT22;21764;52.042;6.830;2022-07-29T20:53:06;19.40;99.90
35645;DHT22;21764;52.042;6.830;2022-07-29T20:58:07;19.40;99.90
35645;DHT22;21764;52.042;6.830;2022-07-29T21:03:07;19.40;99.90
35645;DHT22;21764;52.042;6.830;2022-07-29T21:08:08;19.40;99.90
35645;DHT22;21764;52.042;6.830;2022-07-29T21:13:09;19.40;99.90
35645;DHT22;21764;52.042;6.830;2022-07-29T21:18:10;19.40;99.90
35645;DHT22;21764;52.042;6.830;2022-07-29T21:23:31;19.40;99.90
35645;DHT22;21764;52.042;6.830;2022-07-29T21:28:32;19.40;99.90
35645;DHT22;21764;52.042;6.830;2022-07-29T21:33:39;19.40;99.90
35645;DHT22;21764;52.042;6.830;2022-07-29T21:38:40;19.40;99.90
35645;DHT22;21764;52.042;6.830;2022-07-29T21:43:41;19.40;99.90
35645;DHT22;21764;52.042;6.830;2022-07-29T21:48:42;19.50;99.90
35645;DHT22;21764;52.042;6.830;2022-07-29T21:53:42;19.50;99.90
35645;DHT22;21764;52.042;6.830;2022-07-29T21:58:43;19.50;99.90
35645;DHT22;21764;52.042;6.830;2022-07-29T22:03:44;19.40;99.90
35645;DHT22;21764;52.042;6.830;2022-07-29T22:08:45;19.40;99.90
35645;DHT22;21764;52.042;6.830;2022-07-29T22:13:47;19.40;99.90
35645;DHT22;21764;52.042;6.830;2022-07-29T22:18:47;19.40;99.90
35645;DHT22;21764;52.042;6.830;2022-07-29T22:23:48;19.40;99.90
35645;DHT22;21764;52.042;6.830;2022-07-29T22:28:49;19.40;99.90
35645;DHT22;21764;52.042;6.830;2022-07-29T22:33:50;19.40;99.90
35645;DHT22;21764;52.042;6.830;2022-07-29T22:38:51;19.30;99.90
35645;DHT22;21764;52.042;6.830;2022-07-29T22:43:51;19.30;99.90
35645;DHT22;21764;52.042;6.830;2022-07-29T22:48:52;19.20;99.90
35645;DHT22;21764;52.042;6.830;2022-07-29T22:53:53;19.20;99.90
35645;DHT22;21764;52.042;6.830;2022-07-29T22:58:54;19.20;99.90
35645;DHT22;21764;52.042;6.830;2022-07-29T23:03:54;19.10;99.90
35645;DHT22;21764;52.042;6.830;2022-07-29T23:08:55;19.10;99.90
35645;DHT22;21764;52.042;6.830;2022-07-29T23:13:56;19.10;99.90
35645;DHT22;21764;52.042;6.830;2022-07-29T23:18:56;19.10;99.90
35645;DHT22;21764;52.042;6.830;2022-07-29T23:23:57;19.00;99.90
35645;DHT22;21764;52.042;6.830;2022-07-29T23:28:58;19.00;99.90
35645;DHT22;21764;52.042;6.830;2022-07-29T23:33:59;18.90;99.90
35645;DHT22;21764;52.042;6.830;2022-07-29T23:38:59;18.80;99.90
35645;DHT22;21764;52.042;6.830;2022-07-29T23:44:00;18.70;99.90
35645;DHT22;21764;52.042;6.830;2022-07-29T23:49:00;18.50;99.90
35645;DHT22;21764;52.042;6.830;2022-07-29T23:54:01;18.20;99.90
35645;DHT22;21764;52.042;6.830;2022-07-29T23:59:02;18.00;99.90
